createdAt,value
2023-05-09T00:01:36.377Z,86.13
2023-05-09T00:04:02.958Z,85.87
2023-05-09T00:06:29.328Z,86.57
2023-05-09T00:08:55.821Z,86.04
2023-05-09T00:11:22.498Z,86.49
2023-05-09T00:13:50.614Z,86.35
2023-05-09T00:16:18.570Z,86.33
2023-05-09T00:18:45.067Z,86.47
2023-05-09T00:21:11.621Z,86.57
2023-05-09T00:23:38.251Z,86.43
2023-05-09T00:26:04.821Z,86.64
2023-05-09T00:28:31.215Z,86.61
2023-05-09T00:30:57.561Z,86.23
2023-05-09T00:33:26.857Z,86.62
2023-05-09T00:35:54.383Z,86.32
2023-05-09T00:38:21.083Z,86.40
2023-05-09T00:40:47.438Z,86.39
2023-05-09T00:43:13.864Z,86.29
2023-05-09T00:45:40.321Z,86.40
2023-05-09T00:48:06.868Z,86.26
2023-05-09T00:50:33.280Z,86.43
2023-05-09T00:52:59.740Z,86.62
2023-05-09T00:55:27.185Z,86.80
2023-05-09T00:57:53.622Z,86.50
2023-05-09T01:00:20.112Z,86.43
2023-05-09T01:02:50.019Z,86.51
2023-05-09T01:05:16.786Z,86.66
2023-05-09T01:07:56.370Z,86.35
2023-05-09T01:10:40.759Z,86.75
2023-05-09T01:13:14.988Z,86.75
2023-05-09T01:15:51.970Z,86.77
2023-05-09T01:18:29.171Z,86.85
2023-05-09T01:21:03.753Z,86.66
2023-05-09T01:23:45.469Z,87.18
2023-05-09T01:26:26.016Z,86.76
2023-05-09T01:29:30.034Z,86.43
2023-05-09T01:31:58.333Z,86.68
2023-05-09T01:34:28.953Z,87.35
2023-05-09T01:36:59.620Z,87.24
2023-05-09T01:39:28.219Z,87.23
2023-05-09T01:41:57.771Z,87.41
2023-05-09T01:44:25.686Z,87.65
2023-05-09T01:46:54.700Z,87.94
2023-05-09T01:49:22.711Z,87.21
2023-05-09T01:51:50.595Z,87.16
2023-05-09T01:54:18.619Z,87.55
2023-05-09T01:56:46.131Z,87.68
2023-05-09T01:59:16.216Z,87.89
2023-05-09T02:01:44.518Z,87.72
2023-05-09T02:04:12.704Z,87.74
2023-05-09T02:06:40.352Z,87.82
2023-05-09T02:09:06.915Z,87.86
2023-05-09T02:11:33.289Z,87.62
2023-05-09T02:13:59.682Z,87.69
2023-05-09T02:16:26.720Z,87.64
2023-05-09T02:18:53.105Z,87.75
2023-05-09T02:21:19.752Z,87.85
2023-05-09T02:23:46.487Z,87.91
2023-05-09T02:26:13.813Z,87.99
2023-05-09T02:28:42.951Z,88.15
2023-05-09T02:31:12.587Z,88.21
2023-05-09T02:33:40.645Z,88.06
2023-05-09T02:36:09.684Z,88.42
2023-05-09T02:38:36.671Z,88.58
2023-05-09T02:41:03.081Z,88.31
2023-05-09T02:43:29.453Z,88.90
2023-05-09T02:45:55.856Z,88.64
2023-05-09T02:48:22.312Z,88.68
2023-05-09T02:50:49.087Z,88.23
2023-05-09T02:53:15.491Z,88.64
2023-05-09T02:55:41.867Z,88.08
2023-05-09T02:58:14.176Z,88.10
2023-05-09T03:00:42.307Z,88.42
2023-05-09T03:03:09.002Z,88.44
2023-05-09T03:05:35.488Z,88.38
2023-05-09T03:08:01.867Z,88.41
2023-05-09T03:10:28.258Z,88.49
2023-05-09T03:12:54.708Z,88.84
2023-05-09T03:15:21.530Z,88.64
2023-05-09T03:17:48.283Z,87.98
2023-05-09T03:20:15.754Z,88.71
2023-05-09T03:22:42.398Z,88.31
2023-05-09T03:25:09.549Z,88.36
2023-05-09T03:27:36.166Z,88.61
2023-05-09T03:30:02.734Z,88.50
2023-05-09T03:32:29.233Z,88.60
2023-05-09T03:34:55.729Z,88.63
2023-05-09T03:37:22.131Z,88.48
2023-05-09T03:39:48.680Z,88.90
2023-05-09T03:42:15.375Z,88.32
2023-05-09T03:44:41.779Z,88.70
2023-05-09T03:47:08.120Z,88.69
2023-05-09T03:49:34.640Z,88.76
2023-05-09T03:52:01.010Z,88.75
2023-05-09T03:54:27.480Z,88.98
2023-05-09T03:56:53.837Z,88.11
2023-05-09T03:59:20.827Z,89.05
2023-05-09T04:01:47.351Z,89.04
2023-05-09T04:04:13.866Z,88.67
2023-05-09T04:06:40.251Z,88.50
2023-05-09T04:09:06.962Z,89.17
2023-05-09T04:11:33.402Z,88.73
2023-05-09T04:13:59.777Z,88.79
2023-05-09T04:16:26.268Z,88.10
2023-05-09T04:18:52.684Z,88.40
2023-05-09T04:21:19.037Z,88.38
2023-05-09T04:23:45.458Z,88.55
2023-05-09T04:26:12.407Z,88.46
2023-05-09T04:28:38.972Z,88.70
2023-05-09T04:31:06.568Z,88.92
2023-05-09T04:33:33.098Z,88.53
2023-05-09T04:35:59.506Z,88.53
2023-05-09T04:38:25.981Z,88.36
2023-05-09T04:40:52.300Z,88.37
2023-05-09T04:43:18.767Z,88.25
2023-05-09T04:45:46.192Z,88.18
2023-05-09T04:48:12.595Z,87.79
2023-05-09T04:50:39.020Z,88.39
2023-05-09T04:53:05.906Z,88.01
2023-05-09T04:55:32.320Z,87.86
2023-05-09T04:57:58.745Z,88.30
2023-05-09T05:00:25.562Z,87.53
2023-05-09T05:02:51.997Z,87.48
2023-05-09T05:05:24.649Z,87.49
2023-05-09T05:07:53.315Z,87.35
2023-05-09T05:10:19.839Z,86.80
2023-05-09T05:12:46.592Z,86.93
2023-05-09T05:15:13.276Z,87.18
2023-05-09T05:17:39.910Z,87.00
2023-05-09T05:20:07.022Z,87.07
2023-05-09T05:22:33.486Z,86.82
2023-05-09T05:24:59.878Z,86.78
2023-05-09T05:27:26.277Z,86.99
2023-05-09T05:29:52.677Z,86.51
2023-05-09T05:32:19.074Z,87.05
2023-05-09T05:34:45.572Z,86.24
2023-05-09T05:37:11.995Z,86.47
2023-05-09T05:39:38.362Z,85.46
2023-05-09T05:42:04.784Z,86.23
2023-05-09T05:44:31.139Z,85.64
2023-05-09T05:46:57.510Z,85.17
2023-05-09T05:49:25.089Z,85.11
2023-05-09T05:51:51.529Z,85.48
2023-05-09T05:54:17.933Z,85.16
2023-05-09T05:56:44.295Z,84.87
2023-05-09T05:59:13.042Z,83.80
2023-05-09T06:01:39.886Z,83.96
2023-05-09T06:04:06.528Z,84.20
2023-05-09T06:06:33.435Z,84.41
2023-05-09T06:08:59.825Z,83.23
2023-05-09T06:11:26.263Z,84.12
2023-05-09T06:13:52.645Z,83.52
2023-05-09T06:16:20.342Z,83.80
2023-05-09T06:18:47.753Z,83.01
2023-05-09T06:21:14.127Z,83.62
2023-05-09T06:23:47.309Z,83.67
2023-05-09T06:26:23.844Z,83.33
2023-05-09T06:28:50.376Z,83.52
2023-05-09T06:31:16.875Z,83.23
2023-05-09T06:33:43.288Z,84.01
2023-05-09T06:36:09.832Z,83.36
2023-05-09T06:38:36.266Z,82.87
2023-05-09T06:41:02.831Z,83.18
2023-05-09T06:43:29.192Z,83.66
2023-05-09T06:45:55.758Z,83.18
2023-05-09T06:48:23.982Z,82.66
2023-05-09T06:50:50.378Z,83.08
2023-05-09T06:53:18.065Z,83.10
2023-05-09T06:55:44.585Z,82.81
2023-05-09T06:58:11.970Z,82.82
2023-05-09T07:00:39.086Z,83.12
2023-05-09T07:03:07.396Z,82.65
2023-05-09T07:05:34.244Z,83.29
2023-05-09T07:08:00.859Z,83.70
2023-05-09T07:10:27.372Z,83.47
2023-05-09T07:12:53.795Z,83.29
2023-05-09T07:15:32.438Z,82.81
2023-05-09T07:18:03.587Z,83.46
2023-05-09T07:20:30.010Z,83.40
2023-05-09T07:22:58.301Z,83.89
2023-05-09T07:25:24.962Z,83.75
2023-05-09T07:27:51.478Z,84.14
2023-05-09T07:30:17.954Z,85.24
2023-05-09T07:32:44.416Z,84.89
2023-05-09T07:35:10.885Z,84.65
2023-05-09T07:37:37.383Z,84.73
2023-05-09T07:40:05.860Z,84.94
2023-05-09T07:42:33.055Z,84.95
2023-05-09T07:45:00.266Z,86.10
2023-05-09T07:47:26.959Z,85.96
2023-05-09T07:49:53.357Z,86.13
2023-05-09T07:52:19.748Z,85.72
2023-05-09T07:54:46.134Z,86.02
2023-05-09T07:57:12.688Z,85.63
2023-05-09T07:59:39.081Z,85.72
2023-05-09T08:02:05.535Z,86.45
2023-05-09T08:04:32.076Z,86.75
2023-05-09T08:06:59.389Z,85.79
2023-05-09T08:09:26.641Z,86.04
2023-05-09T08:11:53.125Z,87.29
2023-05-09T08:14:19.524Z,86.03
2023-05-09T08:16:45.940Z,86.28
2023-05-09T08:19:12.319Z,86.79
2023-05-09T08:21:38.729Z,87.16
2023-05-09T08:24:07.958Z,86.83
2023-05-09T08:26:35.207Z,87.32
2023-05-09T08:29:01.849Z,87.14
2023-05-09T08:31:28.339Z,86.88
2023-05-09T08:33:54.740Z,86.94
2023-05-09T08:36:21.206Z,86.90
2023-05-09T08:38:47.744Z,86.73
2023-05-09T08:41:14.524Z,86.20
2023-05-09T08:43:41.625Z,87.88
2023-05-09T08:46:10.383Z,87.08
2023-05-09T08:48:37.807Z,86.44
2023-05-09T08:51:06.048Z,87.23
2023-05-09T08:53:33.242Z,86.83
2023-05-09T08:56:03.241Z,86.88
2023-05-09T08:58:30.978Z,86.99
2023-05-09T09:00:58.963Z,87.12
2023-05-09T09:03:26.256Z,86.63
2023-05-09T09:05:54.709Z,87.62
2023-05-09T09:08:22.903Z,87.45
2023-05-09T09:10:49.573Z,87.48
2023-05-09T09:13:17.520Z,87.30
2023-05-09T09:15:46.216Z,88.20
2023-05-09T09:18:18.120Z,87.18
2023-05-09T09:20:53.005Z,87.03
2023-05-09T09:23:23.002Z,87.44
2023-05-09T09:26:02.104Z,87.78
2023-05-09T09:28:28.722Z,87.81
2023-05-09T09:30:55.139Z,88.15
2023-05-09T09:33:26.859Z,88.48
2023-05-09T09:35:56.334Z,89.32
2023-05-09T09:38:24.455Z,88.08
2023-05-09T09:40:57.881Z,88.24
2023-05-09T09:43:28.971Z,88.54
2023-05-09T09:45:57.037Z,88.19
2023-05-09T09:48:27.365Z,89.43
2023-05-09T09:50:56.728Z,88.82
2023-05-09T09:53:24.009Z,88.73
2023-05-09T09:55:52.063Z,88.11
2023-05-09T09:58:21.837Z,88.23
2023-05-09T10:01:04.957Z,87.89
2023-05-09T10:03:42.000Z,89.05
2023-05-09T10:06:16.400Z,89.43
2023-05-09T10:08:44.348Z,89.13
2023-05-09T10:11:11.178Z,89.72
2023-05-09T10:13:38.656Z,89.80
2023-05-09T10:16:06.142Z,90.55
2023-05-09T10:18:33.849Z,90.11
2023-05-09T10:21:05.080Z,90.39
2023-05-09T10:23:34.419Z,90.46
2023-05-09T10:26:12.391Z,91.51
2023-05-09T10:28:40.548Z,91.22
2023-05-09T10:31:18.532Z,90.74
2023-05-09T10:33:49.310Z,91.73
2023-05-09T10:36:18.376Z,91.67
2023-05-09T10:38:45.714Z,91.59
2023-05-09T10:41:13.622Z,90.83
2023-05-09T10:43:40.356Z,91.60
2023-05-09T10:46:07.350Z,91.17
2023-05-09T10:48:34.018Z,91.89
2023-05-09T10:51:02.195Z,91.19
2023-05-09T10:53:43.596Z,92.05
2023-05-09T10:56:23.349Z,91.61
2023-05-09T10:58:49.924Z,91.63
2023-05-09T11:01:29.443Z,91.27
2023-05-09T11:03:58.378Z,91.84
2023-05-09T11:06:52.478Z,92.27
2023-05-09T11:09:38.969Z,92.65
2023-05-09T11:12:05.418Z,93.05
2023-05-09T11:14:38.014Z,92.84
2023-05-09T11:17:06.653Z,92.80
2023-05-09T11:19:58.135Z,92.47
2023-05-09T11:22:37.537Z,92.43
2023-05-09T11:25:13.204Z,92.36
2023-05-09T11:27:45.310Z,92.11
2023-05-09T11:30:16.504Z,93.22
2023-05-09T11:32:52.390Z,93.56
2023-05-09T11:35:21.776Z,93.44
2023-05-09T11:37:49.752Z,93.65
2023-05-09T11:40:20.946Z,93.58
2023-05-09T11:42:50.102Z,93.52
2023-05-09T11:45:17.225Z,94.09
2023-05-09T11:47:45.793Z,94.21
2023-05-09T11:50:13.653Z,94.41
2023-05-09T11:52:41.386Z,93.90
2023-05-09T11:55:13.013Z,94.30
2023-05-09T11:57:41.630Z,93.92
2023-05-09T12:00:10.402Z,93.73
2023-05-09T12:02:37.814Z,94.05
2023-05-09T12:05:13.120Z,93.98
2023-05-09T12:07:40.411Z,94.17
2023-05-09T12:10:07.613Z,94.66
2023-05-09T12:12:35.750Z,95.20
2023-05-09T12:15:04.642Z,95.41
2023-05-09T12:17:31.474Z,95.36
2023-05-09T12:20:00.206Z,95.69
2023-05-09T12:22:27.739Z,95.84
2023-05-09T12:24:54.714Z,96.25
2023-05-09T12:27:21.327Z,95.89
2023-05-09T12:29:48.225Z,95.78
2023-05-09T12:32:16.281Z,95.98
2023-05-09T12:34:45.469Z,95.65
2023-05-09T12:37:17.289Z,95.69
2023-05-09T12:40:08.520Z,96.17
2023-05-09T12:42:35.810Z,96.12
2023-05-09T12:45:07.848Z,96.10
2023-05-09T12:47:34.449Z,96.13
2023-05-09T12:50:06.439Z,95.89
2023-05-09T12:52:41.626Z,96.18
2023-05-09T12:55:14.150Z,95.91
2023-05-09T12:57:41.816Z,95.77
2023-05-09T13:00:10.041Z,95.52
2023-05-09T13:02:41.875Z,95.26
2023-05-09T13:05:12.273Z,95.87
2023-05-09T13:07:46.433Z,95.70
2023-05-09T13:10:14.372Z,95.74
2023-05-09T13:12:45.109Z,95.63
2023-05-09T13:15:12.269Z,95.61
2023-05-09T13:17:38.840Z,95.67
2023-05-09T13:20:05.926Z,95.36
2023-05-09T13:22:32.687Z,95.63
2023-05-09T13:24:59.038Z,95.41
2023-05-09T13:27:25.631Z,95.68
2023-05-09T13:29:52.065Z,95.38
2023-05-09T13:32:18.404Z,95.54
2023-05-09T13:34:46.023Z,95.34
2023-05-09T13:37:12.421Z,94.54
2023-05-09T13:39:38.800Z,93.92
2023-05-09T13:42:05.174Z,94.55
2023-05-09T13:44:31.583Z,94.68
2023-05-09T13:47:00.168Z,93.82
2023-05-09T13:49:27.793Z,95.05
2023-05-09T13:51:54.854Z,94.40
2023-05-09T13:54:23.018Z,94.95
2023-05-09T13:56:51.202Z,94.77
2023-05-09T13:59:17.647Z,95.53
2023-05-09T14:01:44.077Z,95.60
2023-05-09T14:04:10.715Z,95.75
2023-05-09T14:06:37.203Z,95.80
2023-05-09T14:09:06.845Z,95.78
2023-05-09T14:11:33.742Z,96.16
2023-05-09T14:14:00.159Z,96.22
2023-05-09T14:16:26.635Z,95.90
2023-05-09T14:18:53.116Z,96.34
2023-05-09T14:21:19.689Z,95.79
2023-05-09T14:23:47.431Z,96.33
2023-05-09T14:26:13.816Z,95.81
2023-05-09T14:28:40.293Z,96.38
2023-05-09T14:31:08.008Z,95.03
2023-05-09T14:33:35.936Z,95.60
2023-05-09T14:36:03.036Z,95.70
2023-05-09T14:38:29.736Z,95.48
2023-05-09T14:40:56.695Z,95.21
2023-05-09T14:43:24.184Z,94.95
2023-05-09T14:45:51.575Z,95.17
2023-05-09T14:48:18.042Z,95.23
2023-05-09T14:50:44.750Z,94.93
2023-05-09T14:53:11.265Z,95.08
2023-05-09T14:55:37.703Z,95.44
2023-05-09T14:58:04.120Z,95.77
2023-05-09T15:00:30.502Z,95.34
2023-05-09T15:02:57.473Z,95.89
2023-05-09T15:05:24.033Z,96.16
2023-05-09T15:07:50.505Z,95.82
2023-05-09T15:10:17.114Z,95.96
2023-05-09T15:12:44.125Z,95.54
2023-05-09T15:15:13.980Z,95.59
2023-05-09T15:17:40.585Z,96.11
2023-05-09T15:20:07.528Z,96.05
2023-05-09T15:22:34.530Z,96.07
2023-05-09T15:25:00.961Z,96.28
2023-05-09T15:27:27.554Z,96.11
2023-05-09T15:29:54.641Z,95.86
2023-05-09T15:32:21.038Z,96.00
2023-05-09T15:34:47.726Z,95.95
2023-05-09T15:37:14.261Z,96.08
2023-05-09T15:39:43.429Z,95.93
2023-05-09T15:42:12.198Z,96.19
2023-05-09T15:44:39.375Z,95.88
2023-05-09T15:47:05.813Z,96.22
2023-05-09T15:49:32.597Z,96.10
2023-05-09T15:51:58.942Z,96.31
2023-05-09T15:54:26.228Z,96.22
2023-05-09T15:56:52.833Z,96.34
2023-05-09T15:59:19.462Z,96.48
2023-05-09T16:01:45.879Z,96.01
2023-05-09T16:04:13.902Z,96.14
2023-05-09T16:06:40.496Z,96.00
2023-05-09T16:09:06.924Z,96.23
2023-05-09T16:11:33.690Z,96.29
2023-05-09T16:14:00.144Z,96.58
2023-05-09T16:16:26.549Z,96.44
2023-05-09T16:18:53.481Z,97.09
2023-05-09T16:21:19.893Z,97.09
2023-05-09T16:23:47.049Z,97.13
2023-05-09T16:26:13.476Z,96.88
2023-05-09T16:28:40.127Z,96.75
2023-05-09T16:31:08.474Z,96.72
2023-05-09T16:33:34.996Z,96.39
2023-05-09T16:36:01.510Z,96.72
2023-05-09T16:38:28.344Z,96.56
2023-05-09T16:40:54.768Z,96.78
2023-05-09T16:43:21.197Z,96.63
2023-05-09T16:45:52.763Z,96.46
2023-05-09T16:48:20.892Z,96.62
2023-05-09T16:50:48.150Z,96.38
2023-05-09T16:53:15.374Z,96.68
2023-05-09T16:55:41.834Z,96.91
2023-05-09T16:58:08.280Z,96.75
2023-05-09T17:00:34.734Z,96.84
2023-05-09T17:03:01.601Z,97.12
2023-05-09T17:05:28.536Z,97.04
2023-05-09T17:07:55.017Z,97.15
2023-05-09T17:10:21.890Z,97.41
2023-05-09T17:12:48.297Z,97.18
2023-05-09T17:15:14.647Z,97.27
2023-05-09T17:17:41.178Z,97.14
2023-05-09T17:20:10.713Z,97.24
2023-05-09T17:22:37.686Z,97.41
2023-05-09T17:25:05.234Z,97.64
2023-05-09T17:27:31.821Z,97.61
2023-05-09T17:29:58.350Z,97.80
2023-05-09T17:32:24.926Z,97.62
2023-05-09T17:34:51.367Z,97.84
2023-05-09T17:37:17.990Z,97.67
2023-05-09T17:39:44.636Z,97.55
2023-05-09T17:42:12.198Z,97.81
2023-05-09T17:44:39.329Z,97.95
2023-05-09T17:47:05.757Z,98.35
2023-05-09T17:49:32.136Z,97.90
2023-05-09T17:51:59.723Z,97.70
2023-05-09T17:54:26.176Z,97.91
2023-05-09T17:56:55.335Z,97.59
2023-05-09T17:59:22.050Z,97.43
2023-05-09T18:01:48.640Z,97.29
2023-05-09T18:04:15.704Z,97.12
2023-05-09T18:06:42.057Z,97.34
2023-05-09T18:09:08.498Z,97.63
2023-05-09T18:11:35.127Z,97.55
2023-05-09T18:14:01.602Z,97.41
2023-05-09T18:16:27.990Z,97.85
2023-05-09T18:18:54.447Z,97.54
2023-05-09T18:21:20.811Z,97.71
2023-05-09T18:23:47.279Z,97.83
2023-05-09T18:26:13.699Z,98.03
2023-05-09T18:28:40.166Z,97.86
2023-05-09T18:31:12.188Z,97.88
2023-05-09T18:33:41.474Z,98.01
2023-05-09T18:36:10.143Z,98.01
2023-05-09T18:38:38.517Z,98.08
2023-05-09T18:41:09.554Z,98.21
2023-05-09T18:43:38.553Z,98.10
2023-05-09T18:46:05.320Z,98.00
2023-05-09T18:48:32.197Z,98.12
2023-05-09T18:50:58.578Z,98.18
2023-05-09T18:53:28.882Z,98.08
2023-05-09T18:55:56.772Z,98.04
2023-05-09T18:58:24.600Z,97.87
2023-05-09T19:00:52.628Z,97.92
2023-05-09T19:03:19.067Z,97.89
2023-05-09T19:05:46.677Z,97.76
2023-05-09T19:08:13.197Z,98.02
2023-05-09T19:10:39.568Z,97.94
2023-05-09T19:13:06.438Z,97.83
2023-05-09T19:15:33.473Z,98.04
2023-05-09T19:18:00.772Z,97.87
2023-05-09T19:20:29.469Z,97.92
2023-05-09T19:22:56.911Z,97.82
2023-05-09T19:25:23.360Z,97.87
2023-05-09T19:27:50.039Z,98.02
2023-05-09T19:30:17.089Z,98.02
2023-05-09T19:32:44.434Z,98.00
2023-05-09T19:35:10.939Z,98.01
2023-05-09T19:37:37.383Z,98.09
2023-05-09T19:40:07.891Z,98.08
2023-05-09T19:42:35.060Z,98.11
2023-05-09T19:45:01.538Z,97.98
2023-05-09T19:47:27.894Z,98.17
2023-05-09T19:49:54.299Z,98.04
2023-05-09T19:52:23.293Z,97.70
2023-05-09T19:54:50.244Z,97.68
2023-05-09T19:57:16.884Z,97.65
2023-05-09T19:59:43.299Z,97.88
2023-05-09T20:02:09.856Z,97.89
2023-05-09T20:04:36.764Z,97.89
2023-05-09T20:07:04.613Z,97.98
2023-05-09T20:09:32.807Z,98.40
2023-05-09T20:12:01.796Z,98.10
2023-05-09T20:14:28.173Z,98.19
2023-05-09T20:16:54.586Z,98.13
2023-05-09T20:19:21.001Z,98.20
2023-05-09T20:21:47.485Z,98.17
2023-05-09T20:24:14.019Z,98.41
2023-05-09T20:26:41.781Z,98.15
2023-05-09T20:29:08.273Z,98.09
2023-05-09T20:31:34.837Z,98.13
2023-05-09T20:34:10.479Z,98.06
2023-05-09T20:36:36.894Z,98.19
2023-05-09T20:39:03.605Z,98.11
2023-05-09T20:41:30.037Z,98.14
2023-05-09T20:44:03.326Z,97.94
2023-05-09T20:46:34.614Z,97.90
2023-05-09T20:49:01.471Z,97.87
2023-05-09T20:51:27.900Z,97.83
2023-05-09T20:53:54.292Z,97.94
2023-05-09T20:56:21.434Z,97.93
2023-05-09T20:58:47.862Z,97.99
2023-05-09T21:01:14.314Z,97.98
2023-05-09T21:03:41.102Z,98.10
2023-05-09T21:06:07.966Z,98.17
2023-05-09T21:08:34.542Z,98.38
2023-05-09T21:11:00.939Z,98.10
2023-05-09T21:13:27.605Z,98.29
2023-05-09T21:15:56.307Z,98.50
2023-05-09T21:18:22.702Z,98.71
2023-05-09T21:20:49.460Z,98.77
2023-05-09T21:23:15.916Z,98.55
2023-05-09T21:25:42.375Z,98.55
2023-05-09T21:28:09.041Z,98.43
2023-05-09T21:30:35.534Z,98.71
2023-05-09T21:33:03.776Z,98.56
2023-05-09T21:35:30.604Z,98.80
2023-05-09T21:37:57.016Z,98.85
2023-05-09T21:40:23.391Z,98.69
2023-05-09T21:42:49.823Z,98.87
2023-05-09T21:45:16.524Z,98.81
2023-05-09T21:47:43.075Z,98.75
2023-05-09T21:50:10.236Z,98.52
2023-05-09T21:52:36.652Z,98.55
2023-05-09T21:55:03.180Z,98.62
2023-05-09T21:57:29.565Z,98.67
2023-05-09T21:59:57.375Z,98.13
2023-05-09T22:02:23.779Z,98.54
2023-05-09T22:04:50.213Z,99.23
2023-05-09T22:07:16.575Z,99.12
2023-05-09T22:09:42.942Z,98.57
2023-05-09T22:12:09.332Z,98.55
2023-05-09T22:14:45.192Z,98.04
2023-05-09T22:17:19.319Z,98.45
2023-05-09T22:19:45.765Z,98.55
2023-05-09T22:22:12.937Z,98.35
2023-05-09T22:24:42.732Z,98.60
2023-05-09T22:27:10.181Z,98.49
2023-05-09T22:29:36.847Z,98.50
2023-05-09T22:32:03.824Z,98.61
2023-05-09T22:34:30.939Z,98.67
2023-05-09T22:36:57.281Z,98.88
2023-05-09T22:39:23.648Z,98.74
2023-05-09T22:41:50.117Z,98.87
2023-05-09T22:44:16.550Z,98.96
2023-05-09T22:46:42.961Z,98.84
2023-05-09T22:49:09.321Z,98.99
2023-05-09T22:51:36.306Z,98.66
2023-05-09T22:54:02.777Z,98.72
2023-05-09T22:56:29.197Z,98.85
2023-05-09T22:58:55.602Z,98.20
2023-05-09T23:01:22.068Z,98.61
2023-05-09T23:03:48.557Z,98.68
2023-05-09T23:06:14.967Z,98.79
2023-05-09T23:08:41.367Z,98.73
2023-05-09T23:11:07.744Z,98.82
2023-05-09T23:13:34.251Z,99.17
2023-05-09T23:16:00.784Z,98.90
2023-05-09T23:18:27.958Z,98.80
2023-05-09T23:20:54.385Z,98.85
2023-05-09T23:23:20.781Z,99.38
2023-05-09T23:25:47.190Z,98.81
2023-05-09T23:28:13.553Z,99.22
2023-05-09T23:30:39.865Z,99.06
2023-05-09T23:33:06.332Z,98.88
2023-05-09T23:35:32.781Z,98.96
2023-05-09T23:37:59.286Z,98.82
2023-05-09T23:40:25.701Z,98.58
2023-05-09T23:42:52.158Z,99.03
2023-05-09T23:45:18.613Z,98.76
2023-05-09T23:47:45.036Z,98.85
2023-05-09T23:50:12.213Z,98.91
2023-05-09T23:52:38.633Z,98.74
2023-05-09T23:55:05.614Z,99.08
2023-05-09T23:57:31.955Z,99.14
2023-05-09T23:59:58.413Z,99.02
